Time;durP1;ratioP1;P1;durP2;ratioP2;P2;SDS_P1;SDS_P2;PMS_P1;PMS_P2;Temp;Humidity;BMP_temperature;BMP_pressure;BME280_temperature;BME280_humidity;BME280_pressure;Samples;Min_cycle;Max_cycle;Signal;HPM_P1;HPM_P2
2023/12/05 00:01:50;;;;;;;3.00;2.90;;;;;;;;;;6005149;29;20310;-68
2023/12/05 00:04:54;;;;;;;2.70;2.60;;;;;;;;;;5997398;29;20302;-68
2023/12/05 00:08:00;;;;;;;2.67;2.57;;;;;;;;;;5997975;29;20305;-68
2023/12/05 00:11:05;;;;;;;2.70;2.60;;;;;;;;;;6008985;29;20329;-67
2023/12/05 00:14:08;;;;;;;2.90;2.80;;;;;;;;;;6024123;29;20298;-68
2023/12/05 00:17:13;;;;;;;2.70;2.60;;;;;;;;;;6024616;29;20306;-68
2023/12/05 00:20:16;;;;;;;2.97;2.87;;;;;;;;;;6024361;29;20314;-68
2023/12/05 00:23:21;;;;;;;2.93;2.80;;;;;;;;;;6024197;29;20306;-68
2023/12/05 00:26:25;;;;;;;3.13;2.93;;;;;;;;;;6024444;29;20302;-68
2023/12/05 00:29:29;;;;;;;2.70;2.60;;;;;;;;;;6022937;29;20325;-68
2023/12/05 00:32:33;;;;;;;2.67;2.50;;;;;;;;;;6024213;29;20298;-68
2023/12/05 00:35:38;;;;;;;2.80;2.67;;;;;;;;;;6023895;29;20298;-68
2023/12/05 00:38:43;;;;;;;2.80;2.70;;;;;;;;;;6022958;29;20301;-69
2023/12/05 00:41:47;;;;;;;2.63;2.63;;;;;;;;;;6024142;29;20479;-69
2023/12/05 00:44:50;;;;;;;2.83;2.73;;;;;;;;;;6024107;29;20306;-69
2023/12/05 00:47:54;;;;;;;2.60;2.53;;;;;;;;;;6024305;29;20301;-69
2023/12/05 00:50:58;;;;;;;2.77;2.67;;;;;;;;;;6023479;29;25535;-69
2023/12/05 00:54:04;;;;;;;2.87;2.77;;;;;;;;;;6023466;29;20301;-69
2023/12/05 00:57:08;;;;;;;3.67;3.47;;;;;;;;;;6023558;29;20299;-69
2023/12/05 01:00:13;;;;;;;3.83;3.40;;;;;;;;;;6023508;29;20297;-68
2023/12/05 01:03:17;;;;;;;3.27;3.10;;;;;;;;;;6022838;29;20306;-69
2023/12/05 01:06:23;;;;;;;3.70;3.50;;;;;;;;;;6023665;29;20310;-69
2023/12/05 01:09:29;;;;;;;3.50;3.30;;;;;;;;;;6023431;29;20474;-68
2023/12/05 01:12:32;;;;;;;4.20;3.47;;;;;;;;;;6010655;29;20498;-69
2023/12/05 01:15:37;;;;;;;3.47;3.27;;;;;;;;;;6023369;29;20301;-69
2023/12/05 01:18:41;;;;;;;2.87;2.77;;;;;;;;;;6027892;29;20404;-69
2023/12/05 01:21:44;;;;;;;5.97;3.97;;;;;;;;;;6023719;29;20293;-69
2023/12/05 01:24:55;;;;;;;4.67;4.10;;;;;;;;;;6022720;29;20297;-69
2023/12/05 01:28:00;;;;;;;3.77;3.57;;;;;;;;;;6023262;29;20298;-68
2023/12/05 01:31:04;;;;;;;4.07;3.77;;;;;;;;;;6021448;29;20325;-68
2023/12/05 01:34:08;;;;;;;3.77;3.47;;;;;;;;;;6020984;29;20309;-68
2023/12/05 01:37:13;;;;;;;3.47;3.23;;;;;;;;;;6022843;29;20302;-69
2023/12/05 01:40:18;;;;;;;3.80;3.60;;;;;;;;;;6022677;29;20390;-69
2023/12/05 01:43:22;;;;;;;3.40;3.20;;;;;;;;;;6021857;29;20302;-69
2023/12/05 01:46:26;;;;;;;3.47;3.27;;;;;;;;;;6022905;29;20321;-69
2023/12/05 01:49:33;;;;;;;4.20;3.90;;;;;;;;;;6022280;29;20305;-69
2023/12/05 01:52:41;;;;;;;4.37;3.97;;;;;;;;;;6022487;29;20302;-69
2023/12/05 01:55:46;;;;;;;3.37;3.17;;;;;;;;;;6022830;29;20306;-69
2023/12/05 01:58:50;;;;;;;4.13;3.83;;;;;;;;;;6022148;29;20298;-69
2023/12/05 02:01:55;;;;;;;4.30;4.00;;;;;;;;;;6020786;29;20317;-69
2023/12/05 02:05:00;;;;;;;4.87;3.97;;;;;;;;;;6022158;29;20453;-70
2023/12/05 02:08:04;;;;;;;4.43;4.10;;;;;;;;;;6022252;29;20310;-69
2023/12/05 02:11:10;;;;;;;4.00;3.70;;;;;;;;;;6008204;29;20497;-68
2023/12/05 02:14:13;;;;;;;4.80;4.40;;;;;;;;;;5999232;29;20461;-68
2023/12/05 02:17:23;;;;;;;4.07;3.87;;;;;;;;;;5998398;29;20291;-68
2023/12/05 02:20:33;;;;;;;4.63;4.27;;;;;;;;;;5999130;29;20307;-68
2023/12/05 02:23:57;;;;;;;4.60;4.20;;;;;;;;;;5999016;29;20318;-69
2023/12/05 02:27:11;;;;;;;4.40;4.10;;;;;;;;;;5963134;29;20302;-68
2023/12/05 02:30:17;;;;;;;5.07;4.57;;;;;;;;;;5999381;29;20305;-68
2023/12/05 02:33:21;;;;;;;4.33;3.93;;;;;;;;;;5999029;29;20334;-68
2023/12/05 02:36:29;;;;;;;4.30;3.97;;;;;;;;;;5998667;29;20355;-67
2023/12/05 02:39:41;;;;;;;4.17;3.83;;;;;;;;;;5995877;29;20305;-68
2023/12/05 02:42:45;;;;;;;4.27;3.87;;;;;;;;;;6015449;29;20298;-68
2023/12/05 02:45:51;;;;;;;4.27;3.97;;;;;;;;;;6021055;29;20290;-68
2023/12/05 02:49:11;;;;;;;4.37;4.07;;;;;;;;;;6021082;29;20315;-68
2023/12/05 02:52:15;;;;;;;3.93;3.63;;;;;;;;;;6021665;29;20322;-69
2023/12/05 02:55:19;;;;;;;4.50;4.10;;;;;;;;;;6021430;29;20302;-69
2023/12/05 02:58:23;;;;;;;4.60;4.20;;;;;;;;;;6022233;29;20309;-69
2023/12/05 03:01:28;;;;;;;4.23;3.57;;;;;;;;;;6023081;29;20325;-69
2023/12/05 03:04:32;;;;;;;3.67;3.37;;;;;;;;;;6022214;29;20558;-69
2023/12/05 03:07:36;;;;;;;4.07;3.77;;;;;;;;;;6021565;29;20301;-69
2023/12/05 03:10:40;;;;;;;4.03;3.70;;;;;;;;;;6012131;29;20294;-69
2023/12/05 03:13:54;;;;;;;3.93;3.60;;;;;;;;;;5998377;29;20311;-69
2023/12/05 03:16:59;;;;;;;4.03;3.60;;;;;;;;;;6012680;29;20306;-69
2023/12/05 03:20:04;;;;;;;4.10;3.70;;;;;;;;;;5998435;29;20403;-69
2023/12/05 03:23:08;;;;;;;4.63;3.73;;;;;;;;;;5998649;29;20383;-68
2023/12/05 03:26:18;;;;;;;4.20;3.90;;;;;;;;;;5998338;29;20309;-68
2023/12/05 03:29:22;;;;;;;3.60;3.40;;;;;;;;;;6012237;29;20489;-68
2023/12/05 03:32:27;;;;;;;3.43;3.23;;;;;;;;;;5998668;29;20309;-69
2023/12/05 03:35:32;;;;;;;3.57;3.37;;;;;;;;;;5998036;29;20301;-68
2023/12/05 03:38:36;;;;;;;3.43;3.10;;;;;;;;;;5997850;29;20301;-68
2023/12/05 03:41:39;;;;;;;3.43;3.23;;;;;;;;;;6006352;29;20304;-69
2023/12/05 03:44:43;;;;;;;3.53;3.03;;;;;;;;;;6019986;29;20307;-69
2023/12/05 03:47:49;;;;;;;3.90;3.60;;;;;;;;;;6033960;29;20314;-69
2023/12/05 03:50:52;;;;;;;3.57;3.27;;;;;;;;;;6020323;29;20589;-69
2023/12/05 03:53:56;;;;;;;3.83;3.60;;;;;;;;;;6020102;29;20330;-68
2023/12/05 03:57:00;;;;;;;4.17;3.27;;;;;;;;;;6020994;29;20303;-69
2023/12/05 04:00:06;;;;;;;3.10;3.00;;;;;;;;;;6020192;29;20329;-69
2023/12/05 04:03:15;;;;;;;3.83;3.53;;;;;;;;;;6014786;29;20424;-68
2023/12/05 04:06:21;;;;;;;3.60;3.30;;;;;;;;;;6003808;29;20300;-69
2023/12/05 04:09:25;;;;;;;4.00;3.70;;;;;;;;;;6019769;29;20291;-68
2023/12/05 04:12:29;;;;;;;3.20;3.10;;;;;;;;;;6001288;29;20558;-68
2023/12/05 04:15:33;;;;;;;3.03;2.90;;;;;;;;;;5996455;29;20325;-68
2023/12/05 04:18:38;;;;;;;4.00;3.70;;;;;;;;;;6004150;29;20300;-68
2023/12/05 04:21:42;;;;;;;2.87;2.77;;;;;;;;;;5997603;29;20300;-68
2023/12/05 04:24:46;;;;;;;5.63;3.33;;;;;;;;;;5996746;29;20294;-68
2023/12/05 04:27:50;;;;;;;3.90;3.60;;;;;;;;;;5997434;29;20299;-68
2023/12/05 04:30:54;;;;;;;3.60;3.40;;;;;;;;;;5994881;29;20311;-68
2023/12/05 04:33:59;;;;;;;4.03;3.67;;;;;;;;;;6004057;29;20309;-68
2023/12/05 04:37:03;;;;;;;3.40;3.20;;;;;;;;;;6009050;29;20297;-68
2023/12/05 04:40:09;;;;;;;4.07;3.67;;;;;;;;;;6019381;29;20461;-68
2023/12/05 04:43:13;;;;;;;4.60;3.50;;;;;;;;;;6019420;29;20297;-68
2023/12/05 04:46:17;;;;;;;5.97;3.73;;;;;;;;;;6020009;29;20307;-68
2023/12/05 04:49:22;;;;;;;3.40;3.20;;;;;;;;;;6018940;29;20320;-68
2023/12/05 04:52:26;;;;;;;5.50;3.57;;;;;;;;;;6019733;29;20308;-68
2023/12/05 04:55:30;;;;;;;4.80;4.03;;;;;;;;;;6018971;29;20592;-68
2023/12/05 04:58:33;;;;;;;4.30;4.00;;;;;;;;;;6019001;29;20530;-68
2023/12/05 05:01:37;;;;;;;4.90;3.80;;;;;;;;;;6023738;29;20296;-68
2023/12/05 05:04:43;;;;;;;4.67;4.10;;;;;;;;;;6023116;29;20297;-68
2023/12/05 05:07:47;;;;;;;4.40;4.03;;;;;;;;;;6023458;29;20534;-68
2023/12/05 05:10:50;;;;;;;4.43;4.03;;;;;;;;;;6013705;29;20297;-68
2023/12/05 05:13:54;;;;;;;4.60;4.20;;;;;;;;;;6000361;29;20312;-68
2023/12/05 05:17:01;;;;;;;6.63;4.13;;;;;;;;;;5999196;29;20574;-68
2023/12/05 05:20:08;;;;;;;4.80;4.27;;;;;;;;;;6000153;29;20522;-68
2023/12/05 05:23:12;;;;;;;9.33;4.60;;;;;;;;;;6000204;29;20436;-68
2023/12/05 05:26:16;;;;;;;4.60;4.20;;;;;;;;;;6001022;29;20300;-68
2023/12/05 05:29:20;;;;;;;8.63;4.13;;;;;;;;;;6000513;29;20309;-68
2023/12/05 05:32:24;;;;;;;5.47;4.17;;;;;;;;;;6000433;29;20298;-68
2023/12/05 05:35:29;;;;;;;5.30;4.23;;;;;;;;;;6000248;29;20306;-68
2023/12/05 05:38:33;;;;;;;5.70;4.33;;;;;;;;;;6000268;29;20297;-68
2023/12/05 05:41:37;;;;;;;4.30;3.97;;;;;;;;;;6008684;29;20309;-68
2023/12/05 05:44:41;;;;;;;4.27;3.70;;;;;;;;;;6021801;29;20305;-69
2023/12/05 05:47:44;;;;;;;4.27;3.97;;;;;;;;;;6023189;29;20304;-68
2023/12/05 05:50:52;;;;;;;5.47;4.33;;;;;;;;;;6022352;29;20296;-68
2023/12/05 05:53:57;;;;;;;6.30;4.20;;;;;;;;;;6022290;29;20589;-67
2023/12/05 05:57:01;;;;;;;5.97;4.33;;;;;;;;;;6022742;29;20304;-67
2023/12/05 06:00:06;;;;;;;6.77;4.33;;;;;;;;;;6022246;29;20301;-67
2023/12/05 06:03:10;;;;;;;5.10;4.27;;;;;;;;;;6022128;29;20305;-68
2023/12/05 06:06:15;;;;;;;7.50;4.97;;;;;;;;;;6022412;29;20347;-68
2023/12/05 06:09:19;;;;;;;5.93;4.13;;;;;;;;;;6022029;29;20381;-67
2023/12/05 06:12:23;;;;;;;6.57;4.37;;;;;;;;;;6001802;29;20482;-68
2023/12/05 06:15:27;;;;;;;8.80;4.50;;;;;;;;;;5999102;29;20305;-68
2023/12/05 06:18:31;;;;;;;9.10;5.17;;;;;;;;;;5999182;29;20578;-70
2023/12/05 06:21:36;;;;;;;9.53;5.20;;;;;;;;;;5999345;29;20300;-67
2023/12/05 06:24:40;;;;;;;10.50;4.87;;;;;;;;;;5998959;29;20305;-70
2023/12/05 06:27:46;;;;;;;8.17;5.37;;;;;;;;;;5999426;29;20573;-69
2023/12/05 06:30:50;;;;;;;8.73;4.87;;;;;;;;;;5998880;29;20301;-68
2023/12/05 06:33:54;;;;;;;10.03;5.20;;;;;;;;;;5998975;29;20313;-69
2023/12/05 06:36:59;;;;;;;10.47;5.27;;;;;;;;;;5999348;29;20308;-68
2023/12/05 06:43:25;;;;;;;10.83;5.43;;;;;;;;;;6030117;29;20296;-70
2023/12/05 06:46:28;;;;;;;11.83;5.70;;;;;;;;;;5999841;29;20607;-68
2023/12/05 06:49:32;;;;;;;11.83;5.23;;;;;;;;;;5999502;29;20302;-69
2023/12/05 06:52:38;;;;;;;10.67;4.90;;;;;;;;;;6000095;29;20306;-68
2023/12/05 06:55:42;;;;;;;14.07;4.93;;;;;;;;;;5998546;29;20617;-68
2023/12/05 06:58:46;;;;;;;10.37;5.50;;;;;;;;;;5997352;29;20256;-68
2023/12/05 07:01:50;;;;;;;9.07;5.17;;;;;;;;;;5997469;29;20300;-69
2023/12/05 07:04:57;;;;;;;11.90;5.03;;;;;;;;;;5998575;29;20305;-68
2023/12/05 07:08:03;;;;;;;11.00;5.07;;;;;;;;;;5998479;29;20489;-68
2023/12/05 07:11:08;;;;;;;9.47;4.80;;;;;;;;;;6023127;29;20301;-68
2023/12/05 07:14:13;;;;;;;11.23;5.27;;;;;;;;;;6019273;29;20292;-68
2023/12/05 07:17:18;;;;;;;9.23;5.33;;;;;;;;;;6020895;29;20313;-68
2023/12/05 07:20:22;;;;;;;12.17;5.77;;;;;;;;;;6020200;29;20296;-68
2023/12/05 07:23:27;;;;;;;7.43;5.17;;;;;;;;;;6019202;29;20299;-68
2023/12/05 07:26:31;;;;;;;7.60;5.03;;;;;;;;;;6020660;29;20315;-68
2023/12/05 07:29:35;;;;;;;8.20;5.40;;;;;;;;;;6019810;29;20290;-68
2023/12/05 07:32:38;;;;;;;6.50;4.63;;;;;;;;;;6020857;29;20299;-69
2023/12/05 07:35:43;;;;;;;6.87;4.60;;;;;;;;;;6019344;29;20322;-68
2023/12/05 07:38:48;;;;;;;6.80;4.30;;;;;;;;;;6020830;29;20292;-68
2023/12/05 07:41:52;;;;;;;7.50;5.23;;;;;;;;;;6020386;29;20301;-68
2023/12/05 07:44:56;;;;;;;6.97;5.70;;;;;;;;;;6020166;29;20304;-68
2023/12/05 07:48:00;;;;;;;11.57;4.77;;;;;;;;;;6020386;29;20301;-68
2023/12/05 07:51:04;;;;;;;10.80;5.33;;;;;;;;;;6020432;29;20293;-68
2023/12/05 07:54:10;;;;;;;9.13;5.60;;;;;;;;;;6019766;29;20313;-68
2023/12/05 07:57:15;;;;;;;7.90;5.63;;;;;;;;;;6020930;29;20301;-69
2023/12/05 08:00:19;;;;;;;6.17;4.73;;;;;;;;;;6019877;29;20352;-69
2023/12/05 08:03:23;;;;;;;5.73;5.07;;;;;;;;;;6019928;29;20600;-69
2023/12/05 08:06:27;;;;;;;7.57;5.67;;;;;;;;;;6020143;29;20305;-69
2023/12/05 08:09:33;;;;;;;6.30;5.10;;;;;;;;;;6019805;29;20384;-69
2023/12/05 08:12:37;;;;;;;6.10;5.13;;;;;;;;;;5998011;29;20302;-70
2023/12/05 08:15:41;;;;;;;5.97;5.37;;;;;;;;;;5997612;29;20480;-69
2023/12/05 08:18:45;;;;;;;5.30;4.87;;;;;;;;;;5997317;29;20318;-69
2023/12/05 08:21:49;;;;;;;8.07;5.87;;;;;;;;;;5997725;29;20305;-69
2023/12/05 08:24:54;;;;;;;7.80;4.80;;;;;;;;;;5997933;29;20307;-69
2023/12/05 08:27:58;;;;;;;8.97;6.17;;;;;;;;;;5997453;29;20310;-69
2023/12/05 08:31:02;;;;;;;8.33;6.63;;;;;;;;;;5997867;29;20306;-69
2023/12/05 08:34:06;;;;;;;10.63;6.80;;;;;;;;;;5999444;29;20301;-69
2023/12/05 08:37:10;;;;;;;9.73;6.87;;;;;;;;;;6001657;29;20306;-69
2023/12/05 08:40:17;;;;;;;14.10;7.13;;;;;;;;;;6001445;29;20299;-69
2023/12/05 08:43:21;;;;;;;8.53;5.80;;;;;;;;;;6014759;29;20301;-69
2023/12/05 08:46:24;;;;;;;6.20;5.23;;;;;;;;;;6023991;29;20309;-68
2023/12/05 08:49:31;;;;;;;5.63;5.03;;;;;;;;;;6023976;29;20301;-68
2023/12/05 08:52:35;;;;;;;7.53;5.87;;;;;;;;;;6024189;29;20295;-69
2023/12/05 08:55:42;;;;;;;9.70;6.10;;;;;;;;;;6023615;29;20305;-69
2023/12/05 08:58:46;;;;;;;15.43;5.77;;;;;;;;;;6023737;29;20346;-69
2023/12/05 09:01:50;;;;;;;7.20;6.03;;;;;;;;;;6022535;29;20295;-69
2023/12/05 09:04:54;;;;;;;6.93;6.00;;;;;;;;;;6023817;29;20305;-69
2023/12/05 09:08:00;;;;;;;9.03;5.57;;;;;;;;;;6023507;29;20503;-69
2023/12/05 09:11:06;;;;;;;7.90;5.73;;;;;;;;;;6013216;29;20300;-68
2023/12/05 09:14:09;;;;;;;6.60;5.73;;;;;;;;;;6000613;29;20307;-68
2023/12/05 09:17:13;;;;;;;6.20;5.47;;;;;;;;;;6001170;29;20566;-68
2023/12/05 09:20:18;;;;;;;5.87;5.17;;;;;;;;;;6000445;29;20314;-68
2023/12/05 09:23:22;;;;;;;5.57;5.07;;;;;;;;;;6000044;29;20301;-68
2023/12/05 09:26:28;;;;;;;7.00;4.90;;;;;;;;;;6000676;29;20300;-68
2023/12/05 09:29:32;;;;;;;5.03;4.53;;;;;;;;;;6000138;29;20579;-68
2023/12/05 09:32:36;;;;;;;4.37;3.97;;;;;;;;;;6000608;29;20486;-68
2023/12/05 09:35:40;;;;;;;5.43;4.93;;;;;;;;;;5999801;29;20309;-69
2023/12/05 09:38:44;;;;;;;4.23;3.97;;;;;;;;;;5999854;29;20311;-68
2023/12/05 09:41:52;;;;;;;4.70;4.00;;;;;;;;;;6016001;29;20409;-68
2023/12/05 09:44:57;;;;;;;4.40;4.00;;;;;;;;;;6021730;29;20302;-68
2023/12/05 09:48:02;;;;;;;4.47;4.07;;;;;;;;;;6022257;29;20580;-68
2023/12/05 09:51:06;;;;;;;4.97;4.47;;;;;;;;;;6022732;29;20473;-68
2023/12/05 09:54:10;;;;;;;5.07;3.60;;;;;;;;;;6022588;29;20294;-68
2023/12/05 09:57:16;;;;;;;4.20;3.80;;;;;;;;;;6022109;29;20326;-68
2023/12/05 10:00:20;;;;;;;3.77;3.43;;;;;;;;;;6022042;29;20294;-68
2023/12/05 10:03:24;;;;;;;4.20;3.80;;;;;;;;;;6021752;29;20325;-68
2023/12/05 10:06:29;;;;;;;4.67;3.93;;;;;;;;;;6021989;29;20298;-69
2023/12/05 10:09:34;;;;;;;4.80;4.40;;;;;;;;;;6021759;29;20301;-69
2023/12/05 10:12:39;;;;;;;5.13;4.43;;;;;;;;;;6013906;29;20496;-69
2023/12/05 10:15:43;;;;;;;4.37;4.07;;;;;;;;;;5999081;29;20311;-69
2023/12/05 10:18:48;;;;;;;6.80;4.63;;;;;;;;;;5998957;29;20295;-69
2023/12/05 10:21:53;;;;;;;3.50;3.37;;;;;;;;;;5999595;29;20291;-69
2023/12/05 10:24:57;;;;;;;4.00;3.70;;;;;;;;;;5999396;29;20306;-69
2023/12/05 10:28:03;;;;;;;3.93;3.73;;;;;;;;;;5997144;29;20304;-69
2023/12/05 10:31:14;;;;;;;3.93;3.63;;;;;;;;;;6007691;29;20297;-70
2023/12/05 10:34:18;;;;;;;3.80;3.50;;;;;;;;;;6021464;29;20297;-69
2023/12/05 10:37:23;;;;;;;4.43;3.97;;;;;;;;;;6020847;29;20313;-69
2023/12/05 10:40:27;;;;;;;4.63;3.90;;;;;;;;;;6021099;29;20317;-68
2023/12/05 10:43:32;;;;;;;4.33;3.90;;;;;;;;;;6020808;29;20311;-68
2023/12/05 10:46:37;;;;;;;4.50;4.20;;;;;;;;;;6021411;29;20298;-69
2023/12/05 10:49:42;;;;;;;5.10;4.70;;;;;;;;;;6020930;29;20310;-69
2023/12/05 10:52:46;;;;;;;4.53;4.20;;;;;;;;;;6021254;29;20301;-68
2023/12/05 10:55:50;;;;;;;4.97;4.57;;;;;;;;;;6020351;29;20291;-68
2023/12/05 10:58:58;;;;;;;4.57;4.13;;;;;;;;;;6020415;29;20311;-68
2023/12/05 11:02:06;;;;;;;4.17;3.70;;;;;;;;;;6020164;29;20439;-69
2023/12/05 11:05:10;;;;;;;4.70;4.30;;;;;;;;;;6021082;29;20306;-69
2023/12/05 11:08:13;;;;;;;4.03;3.73;;;;;;;;;;6020900;29;20301;-68
2023/12/05 11:11:18;;;;;;;4.13;3.83;;;;;;;;;;6008447;29;20295;-69
2023/12/05 11:14:26;;;;;;;4.50;4.10;;;;;;;;;;5997975;29;20305;-69
2023/12/05 11:17:37;;;;;;;8.57;4.47;;;;;;;;;;5998746;29;20308;-69
2023/12/05 11:20:53;;;;;;;4.63;4.17;;;;;;;;;;5997962;29;20299;-71
2023/12/05 11:24:23;;;;;;;4.60;4.30;;;;;;;;;;5997924;29;20613;-68
2023/12/05 11:27:37;;;;;;;4.60;4.23;;;;;;;;;;5997841;29;20578;-68
2023/12/05 11:31:06;;;;;;;4.20;3.90;;;;;;;;;;5996168;29;20291;-70
2023/12/05 11:34:25;;;;;;;3.30;3.20;;;;;;;;;;5998861;29;20405;-68
2023/12/05 11:37:40;;;;;;;4.00;3.70;;;;;;;;;;5998418;29;20624;-68
2023/12/05 11:40:44;;;;;;;4.17;3.80;;;;;;;;;;5998204;29;20292;-70
2023/12/05 11:44:18;;;;;;;4.70;3.93;;;;;;;;;;6014935;29;20302;-69
2023/12/05 11:47:27;;;;;;;4.30;3.73;;;;;;;;;;6020541;29;20298;-69
2023/12/05 11:50:42;;;;;;;3.47;3.27;;;;;;;;;;6019730;29;20571;-69
2023/12/05 11:53:46;;;;;;;3.30;3.20;;;;;;;;;;6019600;29;20306;-69
2023/12/05 11:56:50;;;;;;;3.03;2.93;;;;;;;;;;6019213;29;20391;-69
2023/12/05 11:59:57;;;;;;;3.30;3.20;;;;;;;;;;6019567;29;20666;-69
2023/12/05 12:03:07;;;;;;;3.60;3.40;;;;;;;;;;6020154;29;20299;-68
2023/12/05 12:06:12;;;;;;;3.40;3.20;;;;;;;;;;6020322;29;20303;-67
2023/12/05 12:09:16;;;;;;;3.60;3.00;;;;;;;;;;6023340;29;20306;-70
2023/12/05 12:12:21;;;;;;;3.07;2.97;;;;;;;;;;6004788;29;20298;-68
2023/12/05 12:15:25;;;;;;;3.00;2.80;;;;;;;;;;6001642;29;20298;-67
2023/12/05 12:18:30;;;;;;;2.93;2.73;;;;;;;;;;6001886;29;20305;-67
2023/12/05 12:21:46;;;;;;;3.13;2.90;;;;;;;;;;6001946;29;20304;-67
2023/12/05 12:24:50;;;;;;;3.00;2.80;;;;;;;;;;6000309;29;20461;-67
2023/12/05 12:27:54;;;;;;;3.00;2.90;;;;;;;;;;6001299;29;20333;-69
2023/12/05 12:30:59;;;;;;;2.97;2.87;;;;;;;;;;5993465;29;20300;-68
2023/12/05 12:34:07;;;;;;;3.30;3.10;;;;;;;;;;6001746;29;20298;-68
2023/12/05 12:37:12;;;;;;;3.07;2.97;;;;;;;;;;6001808;29;20443;-69
2023/12/05 12:40:25;;;;;;;2.93;2.73;;;;;;;;;;6001374;29;20291;-68
2023/12/05 12:43:29;;;;;;;3.97;3.57;;;;;;;;;;6015956;29;20310;-69
2023/12/05 12:46:33;;;;;;;3.33;3.23;;;;;;;;;;6024272;29;20305;-69
2023/12/05 12:49:38;;;;;;;3.70;3.50;;;;;;;;;;6024212;29;20417;-68
2023/12/05 12:52:42;;;;;;;2.97;2.87;;;;;;;;;;6024379;29;20265;-68
2023/12/05 12:55:50;;;;;;;3.57;3.27;;;;;;;;;;6023715;29;20298;-68
2023/12/05 12:58:59;;;;;;;3.20;3.00;;;;;;;;;;6024051;29;20409;-69
2023/12/05 13:02:03;;;;;;;3.20;3.03;;;;;;;;;;6024015;29;20309;-69
2023/12/05 13:05:09;;;;;;;4.97;3.23;;;;;;;;;;6023634;29;20294;-69
2023/12/05 13:08:14;;;;;;;3.53;3.23;;;;;;;;;;6023689;29;20306;-68
2023/12/05 13:11:18;;;;;;;3.43;3.33;;;;;;;;;;6011396;29;20310;-69
2023/12/05 13:14:22;;;;;;;3.43;3.17;;;;;;;;;;6000521;29;20645;-68
2023/12/05 13:17:26;;;;;;;3.13;2.93;;;;;;;;;;6001016;29;20491;-68
2023/12/05 13:20:32;;;;;;;2.90;2.80;;;;;;;;;;5999542;29;20424;-69
2023/12/05 13:23:36;;;;;;;3.33;3.17;;;;;;;;;;6000478;29;20317;-69
2023/12/05 13:26:40;;;;;;;3.20;3.10;;;;;;;;;;6000528;29;20306;-69
2023/12/05 13:29:51;;;;;;;3.37;3.17;;;;;;;;;;6009686;29;20326;-68
2023/12/05 13:32:55;;;;;;;3.20;3.10;;;;;;;;;;6022954;29;20491;-68
2023/12/05 13:36:01;;;;;;;2.90;2.80;;;;;;;;;;6017018;29;20562;-66
2023/12/05 13:39:05;;;;;;;2.93;2.83;;;;;;;;;;6000300;29;20306;-66
2023/12/05 13:42:12;;;;;;;2.50;2.40;;;;;;;;;;6000669;29;20299;-66
2023/12/05 13:45:16;;;;;;;2.80;2.70;;;;;;;;;;6000385;29;20298;-67
2023/12/05 13:48:23;;;;;;;3.20;3.10;;;;;;;;;;6000231;29;20325;-67
2023/12/05 13:51:29;;;;;;;2.83;2.73;;;;;;;;;;6009151;29;20296;-68
2023/12/05 13:54:33;;;;;;;3.43;3.17;;;;;;;;;;6022719;29;20606;-67
2023/12/05 13:57:37;;;;;;;3.03;2.83;;;;;;;;;;6022485;29;20306;-67
2023/12/05 14:00:42;;;;;;;2.73;2.70;;;;;;;;;;6022266;29;20302;-69
2023/12/05 14:03:46;;;;;;;3.23;3.03;;;;;;;;;;6022111;29;20494;-69
2023/12/05 14:06:51;;;;;;;3.13;2.93;;;;;;;;;;6022187;29;20721;-68
2023/12/05 14:09:55;;;;;;;2.80;2.70;;;;;;;;;;6019494;29;20313;-69
2023/12/05 14:12:59;;;;;;;3.00;2.80;;;;;;;;;;5999556;29;20385;-68
2023/12/05 14:16:04;;;;;;;3.13;3.03;;;;;;;;;;6000041;29;20302;-68
2023/12/05 14:19:08;;;;;;;3.23;3.07;;;;;;;;;;5999246;29;20302;-69
2023/12/05 14:22:13;;;;;;;2.97;2.87;;;;;;;;;;5999775;29;20306;-68
2023/12/05 14:25:18;;;;;;;3.20;3.00;;;;;;;;;;5999129;29;20607;-67
2023/12/05 14:28:22;;;;;;;3.43;3.30;;;;;;;;;;5999492;29;20297;-67
2023/12/05 14:31:26;;;;;;;3.50;3.30;;;;;;;;;;5999528;29;20299;-69
2023/12/05 14:34:30;;;;;;;4.57;3.57;;;;;;;;;;5999533;29;20307;-67
2023/12/05 14:37:36;;;;;;;3.60;3.30;;;;;;;;;;5999182;29;20322;-68
2023/12/05 14:40:42;;;;;;;3.70;3.50;;;;;;;;;;5999324;29;20249;-67
2023/12/05 14:43:46;;;;;;;4.00;3.70;;;;;;;;;;5999050;29;20303;-68
2023/12/05 14:46:50;;;;;;;3.67;3.40;;;;;;;;;;5999368;29;20318;-68
2023/12/05 14:49:54;;;;;;;4.37;3.53;;;;;;;;;;5998960;29;20309;-68
2023/12/05 14:52:59;;;;;;;3.57;3.37;;;;;;;;;;5998528;29;20297;-68
2023/12/05 14:56:03;;;;;;;3.87;3.60;;;;;;;;;;5999448;29;20378;-69
2023/12/05 14:59:07;;;;;;;3.73;3.53;;;;;;;;;;5998862;29;20386;-69
2023/12/05 15:02:11;;;;;;;3.37;3.27;;;;;;;;;;5999053;29;20303;-69
2023/12/05 15:05:16;;;;;;;3.83;3.63;;;;;;;;;;5997544;29;20305;-69
2023/12/05 15:08:22;;;;;;;3.80;3.60;;;;;;;;;;5998954;29;20327;-69
2023/12/05 15:11:26;;;;;;;3.43;3.33;;;;;;;;;;6013383;29;20297;-69
2023/12/05 15:14:30;;;;;;;3.87;3.53;;;;;;;;;;6013577;29;20297;-68
2023/12/05 15:17:35;;;;;;;3.60;3.40;;;;;;;;;;6013325;29;20312;-68
2023/12/05 15:20:39;;;;;;;4.20;3.53;;;;;;;;;;5994583;29;20306;-70
2023/12/05 15:23:45;;;;;;;3.60;3.30;;;;;;;;;;6000949;29;20298;-70
2023/12/05 15:26:49;;;;;;;3.67;3.47;;;;;;;;;;5994185;29;20318;-69
2023/12/05 15:29:55;;;;;;;3.60;3.40;;;;;;;;;;6012305;29;20493;-70
2023/12/05 15:33:00;;;;;;;3.50;3.33;;;;;;;;;;6015438;29;20351;-70
2023/12/05 15:36:08;;;;;;;4.20;3.90;;;;;;;;;;6025558;29;20301;-69
2023/12/05 15:39:14;;;;;;;3.73;3.63;;;;;;;;;;6027631;29;20298;-69
2023/12/05 15:42:18;;;;;;;4.33;3.97;;;;;;;;;;6021780;29;20598;-69
2023/12/05 15:45:22;;;;;;;4.33;3.93;;;;;;;;;;6021171;29;20298;-69
2023/12/05 15:48:26;;;;;;;3.33;3.23;;;;;;;;;;6020524;29;20296;-69
2023/12/05 15:51:48;;;;;;;4.40;4.00;;;;;;;;;;6022796;29;20300;-68
2023/12/05 15:54:54;;;;;;;4.07;3.80;;;;;;;;;;6024373;29;20322;-68
2023/12/05 15:57:58;;;;;;;4.17;3.97;;;;;;;;;;6023527;29;20305;-68
2023/12/05 16:01:02;;;;;;;4.23;3.93;;;;;;;;;;6024434;29;20308;-69
2023/12/05 16:04:06;;;;;;;4.60;4.13;;;;;;;;;;6028919;29;20298;-69
2023/12/05 16:07:10;;;;;;;9.33;4.27;;;;;;;;;;6019525;29;20309;-70
2023/12/05 16:10:16;;;;;;;3.50;3.40;;;;;;;;;;6007473;29;20301;-70
2023/12/05 16:13:20;;;;;;;3.37;3.27;;;;;;;;;;6020200;29;20313;-69
2023/12/05 16:16:25;;;;;;;3.37;3.17;;;;;;;;;;6034513;29;20436;-69
2023/12/05 16:19:28;;;;;;;4.10;3.80;;;;;;;;;;6020095;29;20317;-68
2023/12/05 16:22:33;;;;;;;4.47;4.03;;;;;;;;;;6020596;29;20297;-68
2023/12/05 16:25:38;;;;;;;3.57;3.47;;;;;;;;;;6010353;29;20293;-67
2023/12/05 16:28:42;;;;;;;4.03;3.83;;;;;;;;;;6019412;29;20305;-68
2023/12/05 16:31:46;;;;;;;4.00;3.70;;;;;;;;;;6020873;29;20302;-67
2023/12/05 16:34:51;;;;;;;4.10;3.77;;;;;;;;;;6019993;29;20309;-69
2023/12/05 16:37:55;;;;;;;4.07;3.83;;;;;;;;;;6019280;29;20491;-69
2023/12/05 16:41:01;;;;;;;6.97;4.30;;;;;;;;;;6020203;29;20309;-69
2023/12/05 16:44:05;;;;;;;4.20;4.00;;;;;;;;;;6019552;29;20643;-69
2023/12/05 16:47:09;;;;;;;3.63;3.43;;;;;;;;;;6017833;29;20313;-72
2023/12/05 16:50:13;;;;;;;3.17;3.03;;;;;;;;;;6012215;29;20301;-69
2023/12/05 16:53:17;;;;;;;3.17;3.07;;;;;;;;;;6020337;29;20322;-69
2023/12/05 16:56:22;;;;;;;3.77;3.47;;;;;;;;;;6025311;29;20481;-69
2023/12/05 16:59:26;;;;;;;3.90;3.70;;;;;;;;;;6024906;29;20315;-71
2023/12/05 17:02:37;;;;;;;3.60;3.40;;;;;;;;;;6028705;29;20312;-70
2023/12/05 17:05:41;;;;;;;4.40;3.10;;;;;;;;;;6024595;29;20305;-69
2023/12/05 17:08:45;;;;;;;4.33;3.23;;;;;;;;;;6023551;29;20306;-68
2023/12/05 17:11:51;;;;;;;3.47;3.27;;;;;;;;;;6007280;29;20297;-68
2023/12/05 17:14:55;;;;;;;4.00;3.80;;;;;;;;;;6000908;29;20438;-68
2023/12/05 17:17:59;;;;;;;3.80;3.50;;;;;;;;;;6000573;29;20604;-68
2023/12/05 17:21:03;;;;;;;3.27;3.07;;;;;;;;;;6000762;29;20425;-68
2023/12/05 17:24:07;;;;;;;7.00;4.10;;;;;;;;;;6000641;29;20582;-69
2023/12/05 17:27:12;;;;;;;5.63;4.10;;;;;;;;;;6000271;29;20293;-68
2023/12/05 17:30:16;;;;;;;3.83;3.67;;;;;;;;;;6014107;29;20481;-68
2023/12/05 17:33:20;;;;;;;4.53;4.20;;;;;;;;;;6022527;29;20300;-68
2023/12/05 17:36:24;;;;;;;4.37;4.07;;;;;;;;;;6023344;29;20292;-68
2023/12/05 17:39:29;;;;;;;4.80;4.40;;;;;;;;;;6022539;29;20306;-69
2023/12/05 17:42:35;;;;;;;5.70;4.47;;;;;;;;;;6017343;29;20325;-68
2023/12/05 17:45:39;;;;;;;5.00;4.60;;;;;;;;;;5999864;29;20304;-67
2023/12/05 17:48:43;;;;;;;5.60;4.67;;;;;;;;;;5999688;29;20291;-68
2023/12/05 17:51:47;;;;;;;5.00;4.70;;;;;;;;;;6000272;29;20297;-69
2023/12/05 17:54:51;;;;;;;4.70;4.40;;;;;;;;;;5999669;29;20310;-69
2023/12/05 17:57:56;;;;;;;6.00;5.10;;;;;;;;;;5999654;29;20310;-69
2023/12/05 18:01:01;;;;;;;5.40;4.90;;;;;;;;;;5999778;29;20318;-69
2023/12/05 18:04:05;;;;;;;5.30;4.80;;;;;;;;;;5999584;29;20305;-69
2023/12/05 18:07:09;;;;;;;5.97;5.00;;;;;;;;;;5999486;29;20309;-69
2023/12/05 18:10:33;;;;;;;5.37;4.87;;;;;;;;;;6006475;29;20318;-69
2023/12/05 18:13:38;;;;;;;7.73;5.23;;;;;;;;;;6022242;29;20304;-68
2023/12/05 18:16:44;;;;;;;8.40;6.30;;;;;;;;;;6022601;29;20300;-70
2023/12/05 18:19:48;;;;;;;7.03;6.03;;;;;;;;;;6022089;29;20301;-70
2023/12/05 18:22:52;;;;;;;6.50;5.53;;;;;;;;;;6021169;29;20439;-69
2023/12/05 18:25:56;;;;;;;7.10;6.10;;;;;;;;;;6022005;29;20315;-69
2023/12/05 18:29:01;;;;;;;6.60;5.97;;;;;;;;;;6021277;29;20307;-69
2023/12/05 18:32:06;;;;;;;8.33;6.23;;;;;;;;;;6022358;29;20302;-67
2023/12/05 18:35:10;;;;;;;7.87;5.63;;;;;;;;;;5999097;29;20310;-70